F/V Carmalia — FMFK — position and weather

sailwx.info

Track history (hours):
 
Tides and Currents Weather Stations Pressure Air Temp Water Temp Dewpoint Dewpoint Depression Visibility Wind Speed Wind Dir Waves Ship Positions

F/V Carmalia

Last reported at 2017-Jun-23 08:48 UTC. Time now 2017-Jun-24 12:17 UTC.
Position N 47°44' W 003°22'.

Length 17 m.

Type: Fishing. MMSI: 228222900.

Date/timePositionNaut miles runAvg speedWind from/ knotsBaromVisibWave heightAir tempDewpointWater temp
2017-Jun-23 08:48N 47°44' W 003°22'0 0.0
2017-Jun-23 08:27N 47°44' W 003°22'0 0.0
2017-Jun-22 14:57N 47°44' W 003°22'0 0.0
2017-Jun-22 06:41N 47°44' W 003°22'0 1.1
2017-Jun-22 06:30N 47°44' W 003°22'0 0.1
2017-Jun-22 06:00N 47°44' W 003°22'  
2017-Jun-16 13:06N 47°44' W 003°22'0 0.0
2017-Jun-16 13:00N 47°44' W 003°22'0 0.0
2017-Jun-16 12:30N 47°44' W 003°22'0 0.0
2017-Jun-16 12:00N 47°44' W 003°22'0 0.0
2017-Jun-16 11:30N 47°44' W 003°22'0 0.1
2017-Jun-16 11:00N 47°44' W 003°22'0 0.0
2017-Jun-16 10:30N 47°44' W 003°22'0 0.2
2017-Jun-16 10:00N 47°44' W 003°22'0 0.0
2017-Jun-16 09:30N 47°44' W 003°22'0 0.0
2017-Jun-16 09:00N 47°44' W 003°22'0 0.0
2017-Jun-16 08:30N 47°44' W 003°22'0 0.0
2017-Jun-16 08:00N 47°44' W 003°22'0 0.0
2017-Jun-16 07:30N 47°44' W 003°22'0 0.0
2017-Jun-16 07:00N 47°44' W 003°22'0 0.0
2017-Jun-16 06:30N 47°44' W 003°22'0 0.0
2017-Jun-16 06:00N 47°44' W 003°22'4 7.5
2017-Jun-16 05:30N 47°41' W 003°25'4 8.2
2017-Jun-16 05:00N 47°40' W 003°31'3 6.0
2017-Jun-16 04:30N 47°38' W 003°35'4 7.2
2017-Jun-16 04:00N 47°37' W 003°40'4 7.0
2017-Jun-16 03:30N 47°35' W 003°45'4 7.0
2017-Jun-16 02:59N 47°34' W 003°50'3 6.8
2017-Jun-16 02:30N 47°33' W 003°54'5 6.7
2017-Jun-16 01:44N 47°30' W 004°01'2 6.8
2017-Jun-16 01:30N 47°30' W 004°03'6 6.6
2017-Jun-16 00:39N 47°27' W 004°11'6 0.9
2017-Jun-15 18:18N 47°25' W 004°18'1 2.9
2017-Jun-15 17:50N 47°25' W 004°20'3 3.3
2017-Jun-15 17:03N 47°24' W 004°24'4 3.0
2017-Jun-15 15:41N 47°24' W 004°30'6 3.2
2017-Jun-15 13:41N 47°25' W 004°39'1 3.1
2017-Jun-15 13:19N 47°25' W 004°41'1 3.1
2017-Jun-15 13:00N 47°25' W 004°43'2 3.0
2017-Jun-15 12:13N 47°25' W 004°46'1 3.0
2017-Jun-15 11:57N 47°25' W 004°47'2 2.9
2017-Jun-15 11:24N 47°25' W 004°50'2 3.0
2017-Jun-15 10:52N 47°25' W 004°52'2 3.0
2017-Jun-15 10:12N 47°25' W 004°55'1 3.0
2017-Jun-15 09:59N 47°25' W 004°56'2 3.1
2017-Jun-15 09:15N 47°25' W 004°59'2 3.2
2017-Jun-15 08:36N 47°25' W 005°02'1 3.2
2017-Jun-15 08:16N 47°25' W 005°04'3 3.2
2017-Jun-15 07:20N 47°26' W 005°08'1 3.2
2017-Jun-15 07:00N 47°26' W 005°10'2 3.2
2017-Jun-15 06:17N 47°27' W 005°13'1 3.0
2017-Jun-15 05:59N 47°27' W 005°14'1 2.8
2017-Jun-15 05:29N 47°27' W 005°16'2 2.6
2017-Jun-15 04:50N 47°29' W 005°18'1 2.4
2017-Jun-15 04:23N 47°30' W 005°18'1 2.0
2017-Jun-15 04:00N 47°30' W 005°19'1 2.0
2017-Jun-15 03:30N 47°31' W 005°17'1 2.9
2017-Jun-15 03:00N 47°31' W 005°15'2 2.8
2017-Jun-15 02:26N 47°31' W 005°13'1 2.8
2017-Jun-15 02:00N 47°31' W 005°11'1 3.0
2017-Jun-15 01:30N 47°31' W 005°09'2 3.0
2017-Jun-15 01:00N 47°32' W 005°07'2 3.1
2017-Jun-15 00:30N 47°33' W 005°05'2 3.4
2017-Jun-15 00:00N 47°33' W 005°03'0 0.9
2017-Jun-14 23:30N 47°34' W 005°03'1 2.6
2017-Jun-14 23:00N 47°32' W 005°03'1 2.5
2017-Jun-14 22:30N 47°31' W 005°02'1 2.4
2017-Jun-14 22:00N 47°30' W 005°02'1 2.4
2017-Jun-14 21:30N 47°29' W 005°03'0 0.1
2017-Jun-14 20:35N 47°29' W 005°03'1 3.8
2017-Jun-14 20:21N 47°30' W 005°03'1 3.6
2017-Jun-14 20:00N 47°31' W 005°03'1 2.7
2017-Jun-14 19:30N 47°32' W 005°03'2 2.6
2017-Jun-14 18:54N 47°31' W 005°03'2 2.8
2017-Jun-14 18:10N 47°29' W 005°02'1 1.8
2017-Jun-14 17:37N 47°30' W 005°01'1 2.9
2017-Jun-14 17:26N 47°30' W 005°01'2 2.9
2017-Jun-14 16:45N 47°32' W 005°01'1 2.5
2017-Jun-14 16:29N 47°33' W 005°01'2 1.7
2017-Jun-14 15:32N 47°33' W 005°04'0 1.3
2017-Jun-14 15:30N 47°33' W 005°04'3 3.0
2017-Jun-14 14:37N 47°32' W 005°07'0 3.5
2017-Jun-14 14:30N 47°32' W 005°08'2 0.7
2017-Jun-14 12:17N 47°31' W 005°06'1 2.4
2017-Jun-14 11:56N 47°30' W 005°06'12 0.7
2017-Jun-13 18:49N 47°24' W 004°50'19 1.9
2017-Jun-13 08:50N 47°26' W 004°23'  
Track history (hours):
 
Tides and Currents Weather Stations Pressure Air Temp Water Temp Dewpoint Dewpoint Depression Visibility Wind Speed Wind Dir Waves Ship Positions

F/V Carmalia

Last reported at 2017-Jun-23 08:48 UTC. Time now 2017-Jun-24 12:17 UTC.
Position N 47°44' W 003°22'.

Length 17 m.

Type: Fishing. MMSI: 228222900.

Date/timePositionNaut miles runAvg speedWind from/ knotsBaromVisibWave heightAir tempDewpointWater temp
2017-Jun-23 08:48N 47°44' W 003°22'0 0.0
2017-Jun-23 08:27N 47°44' W 003°22'0 0.0
2017-Jun-22 14:57N 47°44' W 003°22'0 0.0
2017-Jun-22 06:41N 47°44' W 003°22'0 1.1
2017-Jun-22 06:30N 47°44' W 003°22'0 0.1
2017-Jun-22 06:00N 47°44' W 003°22'  
2017-Jun-16 13:06N 47°44' W 003°22'0 0.0
2017-Jun-16 13:00N 47°44' W 003°22'0 0.0
2017-Jun-16 12:30N 47°44' W 003°22'0 0.0
2017-Jun-16 12:00N 47°44' W 003°22'0 0.0
2017-Jun-16 11:30N 47°44' W 003°22'0 0.1
2017-Jun-16 11:00N 47°44' W 003°22'0 0.0
2017-Jun-16 10:30N 47°44' W 003°22'0 0.2
2017-Jun-16 10:00N 47°44' W 003°22'0 0.0
2017-Jun-16 09:30N 47°44' W 003°22'0 0.0
2017-Jun-16 09:00N 47°44' W 003°22'0 0.0
2017-Jun-16 08:30N 47°44' W 003°22'0 0.0
2017-Jun-16 08:00N 47°44' W 003°22'0 0.0
2017-Jun-16 07:30N 47°44' W 003°22'0 0.0
2017-Jun-16 07:00N 47°44' W 003°22'0 0.0
2017-Jun-16 06:30N 47°44' W 003°22'0 0.0
2017-Jun-16 06:00N 47°44' W 003°22'4 7.5
2017-Jun-16 05:30N 47°41' W 003°25'4 8.2
2017-Jun-16 05:00N 47°40' W 003°31'3 6.0
2017-Jun-16 04:30N 47°38' W 003°35'4 7.2
2017-Jun-16 04:00N 47°37' W 003°40'4 7.0
2017-Jun-16 03:30N 47°35' W 003°45'4 7.0
2017-Jun-16 02:59N 47°34' W 003°50'3 6.8
2017-Jun-16 02:30N 47°33' W 003°54'5 6.7
2017-Jun-16 01:44N 47°30' W 004°01'2 6.8
2017-Jun-16 01:30N 47°30' W 004°03'6 6.6
2017-Jun-16 00:39N 47°27' W 004°11'6 0.9
2017-Jun-15 18:18N 47°25' W 004°18'1 2.9
2017-Jun-15 17:50N 47°25' W 004°20'3 3.3
2017-Jun-15 17:03N 47°24' W 004°24'4 3.0
2017-Jun-15 15:41N 47°24' W 004°30'6 3.2
2017-Jun-15 13:41N 47°25' W 004°39'1 3.1
2017-Jun-15 13:19N 47°25' W 004°41'1 3.1
2017-Jun-15 13:00N 47°25' W 004°43'2 3.0
2017-Jun-15 12:13N 47°25' W 004°46'1 3.0
2017-Jun-15 11:57N 47°25' W 004°47'2 2.9
2017-Jun-15 11:24N 47°25' W 004°50'2 3.0
2017-Jun-15 10:52N 47°25' W 004°52'2 3.0
2017-Jun-15 10:12N 47°25' W 004°55'1 3.0
2017-Jun-15 09:59N 47°25' W 004°56'2 3.1
2017-Jun-15 09:15N 47°25' W 004°59'2 3.2
2017-Jun-15 08:36N 47°25' W 005°02'1 3.2
2017-Jun-15 08:16N 47°25' W 005°04'3 3.2
2017-Jun-15 07:20N 47°26' W 005°08'1 3.2
2017-Jun-15 07:00N 47°26' W 005°10'2 3.2
2017-Jun-15 06:17N 47°27' W 005°13'1 3.0
2017-Jun-15 05:59N 47°27' W 005°14'1 2.8
2017-Jun-15 05:29N 47°27' W 005°16'2 2.6
2017-Jun-15 04:50N 47°29' W 005°18'1 2.4
2017-Jun-15 04:23N 47°30' W 005°18'1 2.0
2017-Jun-15 04:00N 47°30' W 005°19'1 2.0
2017-Jun-15 03:30N 47°31' W 005°17'1 2.9
2017-Jun-15 03:00N 47°31' W 005°15'2 2.8
2017-Jun-15 02:26N 47°31' W 005°13'1 2.8
2017-Jun-15 02:00N 47°31' W 005°11'1 3.0
2017-Jun-15 01:30N 47°31' W 005°09'2 3.0
2017-Jun-15 01:00N 47°32' W 005°07'2 3.1
2017-Jun-15 00:30N 47°33' W 005°05'2 3.4
2017-Jun-15 00:00N 47°33' W 005°03'0 0.9
2017-Jun-14 23:30N 47°34' W 005°03'1 2.6
2017-Jun-14 23:00N 47°32' W 005°03'1 2.5
2017-Jun-14 22:30N 47°31' W 005°02'1 2.4
2017-Jun-14 22:00N 47°30' W 005°02'1 2.4
2017-Jun-14 21:30N 47°29' W 005°03'0 0.1
2017-Jun-14 20:35N 47°29' W 005°03'1 3.8
2017-Jun-14 20:21N 47°30' W 005°03'1 3.6
2017-Jun-14 20:00N 47°31' W 005°03'1 2.7
2017-Jun-14 19:30N 47°32' W 005°03'2 2.6
2017-Jun-14 18:54N 47°31' W 005°03'2 2.8
2017-Jun-14 18:10N 47°29' W 005°02'1 1.8
2017-Jun-14 17:37N 47°30' W 005°01'1 2.9
2017-Jun-14 17:26N 47°30' W 005°01'2 2.9
2017-Jun-14 16:45N 47°32' W 005°01'1 2.5
2017-Jun-14 16:29N 47°33' W 005°01'2 1.7
2017-Jun-14 15:32N 47°33' W 005°04'0 1.3
2017-Jun-14 15:30N 47°33' W 005°04'3 3.0
2017-Jun-14 14:37N 47°32' W 005°07'0 3.5
2017-Jun-14 14:30N 47°32' W 005°08'2 0.7
2017-Jun-14 12:17N 47°31' W 005°06'1 2.4
2017-Jun-14 11:56N 47°30' W 005°06'12 0.7
2017-Jun-13 18:49N 47°24' W 004°50'19 1.9
2017-Jun-13 08:50N 47°26' W 004°23'  

Dump ship's entire track history